Terminal Aerodrome Forecast
Issued by NWS

Home | Current Version | Previous Version | Text Only | Print | Product List | Glossary Off
Versions: 1 2 3 4 5 6 7 8 9 10 11 12 13 14 15

000
FTUS43 KPAH 042329
TAFCGI
TAF
KCGI 042329Z 0500/0524 00000KT P6SM SKC
     FM050500 00000KT 4SM HZ BR MIFG SKC
      TEMPO 0507/0511 1SM BR BKN002
     FM051400 13004KT P6SM SKC
     FM051630 12004KT P6SM SCT060 BKN250=

USA.gov is the U.S. government's official web portal to all federal, state and local government web resources and services.